createdAt,value
2018-09-01T08:10:36.157Z,14.64
2018-09-01T08:11:36.546Z,14.68
2018-09-01T08:12:35.518Z,14.78
2018-09-01T08:13:35.524Z,14.80
2018-09-01T08:14:50.422Z,14.77
2018-09-01T08:15:36.491Z,14.81
2018-09-01T08:16:36.374Z,14.75
2018-09-01T08:17:35.422Z,14.81
2018-09-01T08:18:35.383Z,14.77
2018-09-01T08:19:35.422Z,14.65
2018-09-01T08:20:35.502Z,14.58
2018-09-01T08:21:35.459Z,14.68
2018-09-01T08:22:35.393Z,14.72
2018-09-01T08:23:35.433Z,14.77
2018-09-01T08:24:35.326Z,14.75
2018-09-01T08:25:35.344Z,14.80
2018-09-01T08:26:35.365Z,14.86
2018-09-01T08:27:35.438Z,14.92
2018-09-01T08:28:36.343Z,14.91
2018-09-01T08:29:35.870Z,14.92
2018-09-01T08:30:35.376Z,14.92
2018-09-01T08:31:36.283Z,14.83
2018-09-01T08:32:35.489Z,14.94
2018-09-01T08:33:35.317Z,14.92
2018-09-01T08:34:35.228Z,15.01
2018-09-01T08:35:35.222Z,14.95
2018-09-01T08:36:35.197Z,15.13
2018-09-01T08:37:36.202Z,15.13
2018-09-01T08:38:35.229Z,15.17
2018-09-01T08:39:35.172Z,15.16
2018-09-01T08:40:35.177Z,15.14
2018-09-01T08:41:35.295Z,15.23
2018-09-01T08:42:35.177Z,15.25
2018-09-01T08:43:35.133Z,15.31
2018-09-01T08:44:35.135Z,15.29
2018-09-01T08:45:35.181Z,15.31
2018-09-01T08:47:53.768Z,15.51
2018-09-01T08:48:48.276Z,15.47
2018-09-01T08:49:47.277Z,15.47
2018-09-01T08:50:47.346Z,15.39
2018-09-01T08:51:47.278Z,15.29
2018-09-01T08:52:47.242Z,15.29
2018-09-01T08:53:47.232Z,15.27
2018-09-01T08:54:49.055Z,15.19
2018-09-01T08:55:49.021Z,15.16
2018-09-01T08:56:48.236Z,15.03
2018-09-01T08:57:47.196Z,14.96
2018-09-01T08:58:48.038Z,14.99
2018-09-01T09:01:00.036Z,15.06
2018-09-01T09:01:59.273Z,14.94
2018-09-01T09:02:59.414Z,14.99
2018-09-01T09:04:00.244Z,14.92
2018-09-01T09:04:59.200Z,15.01
2018-09-01T09:05:59.640Z,14.92
2018-09-01T09:07:00.111Z,14.89
2018-09-01T09:07:59.211Z,14.88
2018-09-01T09:08:59.127Z,14.89
2018-09-01T09:09:59.124Z,14.92
2018-09-01T09:10:59.117Z,14.73
2018-09-01T09:11:59.072Z,14.80
2018-09-01T09:13:07.820Z,14.68
2018-09-01T09:13:59.492Z,14.80
2018-09-01T09:14:59.277Z,14.72
2018-09-01T09:16:01.994Z,14.60
2018-09-01T09:16:59.128Z,14.60
2018-09-01T09:18:11.443Z,14.60
2018-09-01T09:19:09.869Z,14.57
2018-09-01T09:19:59.208Z,14.43
2018-09-01T09:21:01.727Z,14.47
2018-09-01T09:21:59.987Z,14.40
2018-09-01T09:22:59.734Z,14.36
2018-09-01T09:23:59.974Z,14.32
2018-09-01T09:25:01.462Z,14.35
2018-09-01T09:26:02.340Z,14.32
2018-09-01T09:27:32.901Z,14.24
2018-09-01T09:28:05.472Z,14.22
2018-09-01T09:28:58.973Z,14.22
2018-09-01T09:31:12.580Z,14.20
2018-09-01T09:32:11.910Z,14.17
2018-09-01T09:33:12.899Z,14.24
2018-09-01T09:34:10.112Z,14.27
2018-09-01T09:35:10.834Z,14.22
2018-09-01T09:36:14.872Z,14.22
2018-09-01T09:37:11.033Z,14.24
2018-09-01T09:38:10.049Z,14.36
2018-09-01T09:39:10.893Z,14.32
2018-09-01T09:40:10.850Z,14.29
2018-09-01T09:41:12.884Z,14.29
2018-09-01T09:42:10.017Z,14.28
2018-09-01T09:43:09.989Z,14.45
2018-09-01T09:44:10.040Z,14.40
2018-09-01T09:46:30.627Z,14.40
2018-09-01T09:47:23.521Z,14.50
2018-09-01T09:48:22.693Z,14.54
2018-09-01T09:49:25.485Z,14.52
2018-09-01T09:50:23.413Z,14.47
2018-09-01T09:51:22.403Z,14.51
2018-09-01T09:52:22.403Z,14.47
2018-09-01T09:53:22.471Z,14.40
2018-09-01T09:54:22.374Z,14.35
2018-09-01T09:55:22.346Z,14.40
2018-09-01T09:56:22.394Z,14.24
2018-09-01T09:57:22.332Z,14.24
2018-09-01T09:58:22.411Z,14.29
2018-09-01T09:59:22.300Z,14.36
2018-09-01T10:01:34.962Z,14.39
2018-09-01T10:02:34.967Z,14.29
2018-09-01T10:03:34.895Z,14.35
2018-09-01T10:04:34.942Z,14.27
2018-09-01T10:05:34.889Z,14.14
2018-09-01T10:06:34.748Z,14.17
2018-09-01T10:07:35.736Z,14.10
2018-09-01T10:08:34.800Z,14.28
2018-09-01T10:09:34.727Z,14.18
2018-09-01T10:10:34.700Z,14.36
2018-09-01T10:11:35.697Z,14.25
2018-09-01T10:12:34.675Z,14.33
2018-09-01T10:13:34.707Z,14.27
2018-09-01T10:14:35.702Z,14.33
2018-09-01T10:16:44.809Z,14.22
2018-09-01T10:17:44.531Z,14.18
2018-09-01T10:18:44.520Z,14.27
2018-09-01T10:19:47.171Z,14.35
2018-09-01T10:20:45.347Z,14.40
2018-09-01T10:21:44.316Z,14.43
2018-09-01T10:22:45.125Z,14.43
2018-09-01T10:23:45.101Z,14.46
2018-09-01T10:24:44.312Z,14.39
2018-09-01T10:25:44.281Z,14.37
2018-09-01T10:26:44.308Z,14.36
2018-09-01T10:27:45.157Z,14.45
2018-09-01T10:28:45.484Z,14.45
2018-09-01T10:29:47.145Z,14.40
2018-09-01T10:31:56.378Z,14.40
2018-09-01T10:32:56.035Z,14.29
2018-09-01T10:33:55.919Z,14.24
2018-09-01T10:34:55.778Z,14.10
2018-09-01T10:35:55.748Z,14.10
2018-09-01T10:36:55.771Z,14.14
2018-09-01T10:37:55.715Z,14.21
2018-09-01T10:38:55.735Z,14.24
2018-09-01T10:39:55.728Z,14.32
2018-09-01T10:40:55.750Z,14.28
2018-09-01T10:41:56.180Z,14.24
2018-09-01T10:42:55.659Z,14.22
2018-09-01T10:43:55.674Z,14.22
2018-09-01T10:44:56.232Z,14.02
2018-09-01T10:47:07.518Z,14.06
2018-09-01T10:48:07.420Z,13.99
2018-09-01T10:49:07.467Z,13.92
2018-09-01T10:53:17.645Z,13.69
2018-09-01T10:54:18.506Z,13.73
2018-09-01T10:55:13.111Z,13.78
2018-09-01T10:56:12.980Z,13.81
2018-09-01T10:57:12.931Z,13.79
2018-09-01T10:58:13.913Z,13.67
2018-09-01T10:59:12.973Z,13.60
2018-09-01T11:01:24.393Z,13.54
2018-09-01T11:02:24.329Z,13.45
2018-09-01T11:03:24.218Z,13.41
2018-09-01T11:04:24.320Z,13.55
2018-09-01T11:05:24.113Z,13.44
2018-09-01T11:06:24.090Z,13.57
2018-09-01T11:07:24.118Z,13.52
2018-09-01T11:08:24.850Z,13.60
2018-09-01T11:09:24.092Z,13.51
2018-09-01T11:10:24.032Z,13.44
2018-09-01T11:11:24.033Z,13.32
2018-09-01T11:12:24.009Z,13.29
2018-09-01T11:13:24.035Z,13.11
2018-09-01T11:14:24.028Z,13.11
2018-09-01T11:16:36.350Z,12.82
2018-09-01T11:17:36.386Z,12.93
2018-09-01T11:18:36.256Z,12.87
2018-09-01T11:19:36.370Z,12.96
2018-09-01T11:20:36.493Z,13.07
2018-09-01T11:21:36.152Z,13.05
2018-09-01T11:22:36.191Z,13.08
2018-09-01T11:23:36.980Z,13.15
2018-09-01T11:24:36.118Z,13.10
2018-09-01T11:25:36.103Z,13.10
2018-09-01T11:26:36.092Z,12.97
2018-09-01T11:27:36.629Z,12.97
2018-09-01T11:28:37.004Z,13.10
2018-09-01T11:29:36.058Z,13.19
2018-09-01T11:31:50.026Z,13.25
2018-09-01T11:32:49.886Z,13.22
2018-09-01T11:33:49.956Z,13.20
2018-09-01T11:34:50.502Z,13.26
2018-09-01T11:35:49.803Z,13.28
2018-09-01T11:36:49.888Z,13.22
2018-09-01T11:37:50.503Z,13.25
2018-09-01T11:38:50.550Z,13.22
2018-09-01T11:40:12.534Z,13.30
2018-09-01T11:40:50.047Z,13.15
2018-09-01T11:41:49.742Z,13.26
2018-09-01T11:42:49.805Z,13.23
2018-09-01T11:43:49.702Z,13.29
2018-09-01T11:44:49.715Z,13.36
2018-09-01T11:47:04.346Z,13.33
2018-09-01T11:48:02.281Z,13.26
2018-09-01T11:49:02.191Z,13.28
2018-09-01T11:50:02.315Z,13.26
2018-09-01T11:51:03.178Z,13.25
2018-09-01T11:52:02.107Z,13.29
2018-09-01T11:53:02.144Z,13.39
2018-09-01T11:54:02.072Z,13.45
2018-09-01T11:55:02.082Z,13.45
2018-09-01T11:56:02.042Z,13.42
2018-09-01T11:57:07.182Z,13.44
2018-09-01T11:58:02.054Z,13.48
2018-09-01T11:59:02.053Z,13.52
2018-09-01T12:00:02.002Z,13.55
2018-09-01T12:02:13.534Z,13.49
2018-09-01T12:03:13.391Z,13.49
2018-09-01T12:04:13.343Z,13.52
2018-09-01T12:05:13.437Z,13.66
2018-09-01T12:06:13.252Z,13.78
2018-09-01T12:07:13.563Z,13.79
2018-09-01T12:08:13.196Z,13.81
2018-09-01T12:09:13.270Z,13.85
2018-09-01T12:10:13.159Z,13.81
2018-09-01T12:11:13.195Z,13.84
2018-09-01T12:12:13.175Z,13.81
2018-09-01T12:13:13.142Z,13.89
2018-09-01T12:14:13.144Z,13.99
2018-09-01T12:15:15.942Z,13.97
2018-09-01T12:17:29.189Z,14.04
2018-09-01T12:18:28.850Z,14.00
2018-09-01T12:19:29.679Z,14.07
2018-09-01T12:20:29.178Z,14.07
2018-09-01T12:21:28.659Z,13.99
2018-09-01T12:22:28.638Z,14.04
2018-09-01T12:23:29.674Z,14.03
2018-09-01T12:24:28.605Z,13.87
2018-09-01T12:25:29.086Z,13.87
2018-09-01T12:26:28.603Z,13.92
2018-09-01T12:27:28.564Z,13.91
2018-09-01T12:28:29.608Z,13.77
2018-09-01T12:29:28.567Z,13.73
2018-09-01T12:30:28.539Z,13.69
2018-09-01T12:32:41.266Z,13.44
2018-09-01T12:33:40.128Z,13.36
2018-09-01T12:34:40.111Z,13.26
2018-09-01T12:35:40.010Z,13.25
2018-09-01T12:36:39.975Z,13.26
2018-09-01T12:37:39.964Z,13.12
2018-09-01T12:38:40.005Z,13.19
2018-09-01T12:39:39.955Z,13.11
2018-09-01T12:40:39.961Z,13.25
2018-09-01T12:41:39.923Z,13.30
2018-09-01T12:42:41.480Z,13.36
2018-09-01T12:43:39.927Z,13.33
2018-09-01T12:44:39.911Z,13.36
2018-09-01T12:46:50.826Z,13.48
2018-09-01T12:47:50.700Z,13.51
2018-09-01T12:48:50.680Z,13.52
2018-09-01T12:49:51.317Z,13.48
2018-09-01T12:50:51.616Z,13.54
2018-09-01T12:51:50.526Z,13.44
2018-09-01T12:52:50.511Z,13.46
2018-09-01T12:53:50.545Z,13.32
2018-09-01T12:54:51.378Z,13.25
2018-09-01T12:55:50.504Z,13.12
2018-09-01T12:56:50.479Z,13.12
2018-09-01T12:57:50.466Z,13.14
2018-09-01T12:58:50.489Z,13.12
2018-09-01T12:59:50.537Z,13.07
2018-09-01T13:02:03.560Z,13.07
2018-09-01T13:03:01.939Z,13.07
2018-09-01T13:04:01.808Z,12.87
2018-09-01T13:05:01.955Z,12.85
2018-09-01T13:06:01.774Z,12.90
2018-09-01T13:07:01.725Z,12.74
2018-09-01T13:08:02.418Z,12.87
2018-09-01T13:09:01.680Z,12.86
2018-09-01T13:10:01.677Z,12.95
2018-09-01T13:11:01.722Z,12.92
2018-09-01T13:12:01.683Z,13.04
2018-09-01T13:13:01.637Z,13.10
2018-09-01T13:14:01.634Z,13.12
2018-09-01T13:15:02.612Z,13.07
2018-09-01T13:17:14.119Z,13.04
2018-09-01T13:18:13.973Z,12.96
2018-09-01T13:19:14.016Z,12.92
2018-09-01T13:20:13.934Z,12.87
2018-09-01T13:21:13.854Z,12.87
2018-09-01T13:22:13.842Z,12.92
2018-09-01T13:23:13.880Z,13.01
2018-09-01T13:24:13.849Z,12.83
2018-09-01T13:25:13.813Z,12.85
2018-09-01T13:26:13.856Z,13.00
2018-09-01T13:27:13.795Z,13.01
2018-09-01T13:28:13.811Z,12.97
2018-09-01T13:29:13.771Z,12.93
2018-09-01T13:30:13.756Z,13.00
2018-09-01T13:32:26.980Z,13.00
2018-09-01T13:33:26.825Z,13.05
2018-09-01T13:34:27.818Z,13.07
2018-09-01T13:35:26.749Z,13.08
2018-09-01T13:36:26.796Z,13.19
2018-09-01T13:37:27.233Z,13.14
2018-09-01T13:38:26.717Z,13.03
2018-09-01T13:39:27.711Z,12.95
2018-09-01T13:40:26.697Z,13.03
2018-09-01T13:41:26.766Z,12.90
2018-09-01T13:42:26.710Z,12.86
2018-09-01T13:43:26.657Z,12.92
2018-09-01T13:44:28.229Z,12.87
2018-09-01T13:45:26.652Z,12.90
2018-09-01T13:47:38.757Z,12.87
2018-09-01T13:48:38.034Z,12.86
2018-09-01T13:49:38.124Z,12.86
2018-09-01T13:50:37.997Z,12.86
2018-09-01T13:51:42.561Z,12.96
2018-09-01T13:52:43.169Z,12.89
2018-09-01T13:53:37.905Z,12.97
2018-09-01T13:54:37.894Z,12.89
2018-09-01T13:55:37.911Z,12.87
2018-09-01T13:56:37.872Z,12.95
2018-09-01T13:57:37.864Z,12.92
2018-09-01T13:58:37.882Z,12.82
2018-09-01T13:59:37.851Z,12.85
2018-09-01T14:00:37.836Z,12.78
2018-09-01T14:02:50.493Z,12.79
2018-09-01T14:03:50.338Z,12.68
2018-09-01T14:04:50.350Z,12.82
2018-09-01T14:05:51.202Z,12.72
2018-09-01T14:06:50.195Z,12.67
2018-09-01T14:07:50.342Z,12.64
2018-09-01T14:08:50.166Z,12.70
2018-09-01T14:13:35.122Z,12.70
2018-09-01T14:14:22.779Z,12.64
2018-09-01T14:15:22.803Z,12.68
2018-09-01T14:17:34.395Z,12.53
2018-09-01T14:18:34.324Z,12.54
2018-09-01T14:19:34.355Z,12.57
2018-09-01T14:20:34.255Z,12.53
2018-09-01T14:21:34.517Z,12.57
2018-09-01T14:22:34.186Z,12.56
2018-09-01T14:23:34.179Z,12.64
2018-09-01T14:24:34.160Z,12.64
2018-09-01T14:25:34.156Z,12.60
2018-09-01T14:26:34.153Z,12.74
2018-09-01T14:27:34.152Z,12.82
2018-09-01T14:28:34.112Z,12.83
2018-09-01T14:29:34.098Z,12.70
2018-09-01T14:30:34.090Z,12.83
2018-09-01T14:32:45.430Z,12.70
2018-09-01T14:33:45.433Z,12.86
2018-09-01T14:34:45.319Z,12.89
2018-09-01T14:35:45.372Z,12.85
2018-09-01T14:36:45.307Z,12.71
2018-09-01T14:37:45.287Z,12.86
2018-09-01T14:38:45.260Z,12.74
2018-09-01T14:39:45.211Z,12.65
2018-09-01T14:40:45.202Z,12.53
2018-09-01T14:41:45.209Z,12.52
2018-09-01T14:42:45.176Z,12.56
2018-09-01T14:43:45.209Z,12.53
2018-09-01T14:44:45.170Z,12.57
2018-09-01T14:45:45.150Z,12.52
2018-09-01T14:47:56.393Z,12.53
2018-09-01T14:48:56.350Z,12.54
2018-09-01T14:49:56.345Z,12.52
2018-09-01T14:50:56.366Z,12.53
2018-09-01T14:51:56.285Z,12.60
2018-09-01T14:52:56.252Z,12.70
2018-09-01T14:53:56.220Z,12.83
2018-09-01T14:54:56.195Z,12.85
2018-09-01T14:55:56.182Z,12.78
2018-09-01T14:56:56.187Z,12.83
2018-09-01T14:57:56.190Z,12.78
2018-09-01T14:58:56.157Z,12.74
2018-09-01T14:59:56.140Z,12.68
2018-09-01T15:00:56.165Z,12.75
2018-09-01T15:03:07.570Z,12.74
2018-09-01T15:04:07.559Z,12.77
2018-09-01T15:05:07.473Z,12.64
2018-09-01T15:06:07.517Z,12.83
2018-09-01T15:07:07.437Z,12.75
2018-09-01T15:08:07.408Z,12.71
2018-09-01T15:09:07.466Z,12.79
2018-09-01T15:10:07.390Z,12.79
2018-09-01T15:11:07.370Z,12.82
2018-09-01T15:12:07.383Z,12.83
2018-09-01T15:13:07.352Z,12.83
2018-09-01T15:14:07.375Z,12.87
2018-09-01T15:15:07.337Z,12.75
2018-09-01T15:16:07.314Z,12.74
2018-09-01T15:18:19.022Z,12.82
2018-09-01T15:19:19.079Z,12.65
2018-09-01T15:20:18.941Z,12.79
2018-09-01T15:21:18.980Z,12.68
2018-09-01T15:22:18.886Z,12.83
2018-09-01T15:23:18.846Z,12.78
2018-09-01T15:24:18.903Z,12.75
2018-09-01T15:25:18.827Z,12.71
2018-09-01T15:26:18.818Z,12.74
2018-09-01T15:27:18.819Z,12.75
2018-09-01T15:28:18.788Z,12.75
2018-09-01T15:29:18.818Z,12.78
2018-09-01T15:30:18.778Z,12.83
2018-09-01T15:31:18.762Z,12.71
2018-09-01T15:33:31.442Z,12.75
2018-09-01T15:34:31.367Z,12.82
2018-09-01T15:35:31.458Z,12.79
2018-09-01T15:36:31.370Z,12.71
2018-09-01T15:37:31.385Z,12.79
2018-09-01T15:38:31.276Z,12.68
2018-09-01T15:39:31.245Z,12.71
2018-09-01T15:40:31.259Z,12.72
2018-09-01T15:41:31.253Z,12.85
2018-09-01T15:42:31.207Z,12.79
2018-09-01T15:43:31.206Z,12.82
2018-09-01T15:44:31.185Z,12.87
2018-09-01T15:45:31.181Z,12.90
2018-09-01T15:46:31.201Z,12.89
2018-09-01T15:48:41.004Z,12.90
2018-09-01T15:49:41.002Z,12.92
2018-09-01T15:50:40.923Z,12.90
2018-09-01T15:51:41.151Z,12.83
2018-09-01T15:52:40.842Z,12.79
2018-09-01T15:53:40.889Z,12.86
2018-09-01T15:54:40.819Z,12.85
2018-09-01T15:55:40.812Z,12.92
2018-09-01T15:56:40.904Z,12.85
2018-09-01T15:57:40.794Z,12.87
2018-09-01T15:58:40.778Z,12.79
2018-09-01T15:59:40.767Z,12.82
2018-09-01T16:00:40.756Z,12.74
2018-09-01T16:02:52.383Z,12.89
2018-09-01T16:03:52.425Z,12.72
2018-09-01T16:04:52.412Z,12.75
2018-09-01T16:05:52.360Z,12.74
2018-09-01T16:06:52.277Z,12.74
2018-09-01T16:07:52.217Z,12.74
2018-09-01T16:08:52.210Z,12.71
2018-09-01T16:09:52.199Z,12.86
2018-09-01T16:10:52.178Z,12.75
2018-09-01T16:11:52.215Z,12.74
2018-09-01T16:12:52.152Z,12.74
2018-09-01T16:13:52.144Z,12.74
2018-09-01T16:14:52.141Z,12.77
2018-09-01T16:15:52.164Z,12.75
2018-09-01T16:18:03.675Z,12.85
2018-09-01T16:19:03.630Z,12.70
2018-09-01T16:20:03.573Z,12.77
2018-09-01T16:21:03.586Z,12.75
2018-09-01T16:22:03.505Z,12.75
2018-09-01T16:23:03.491Z,12.75
2018-09-01T16:24:03.468Z,12.77
2018-09-01T16:25:03.469Z,12.77
2018-09-01T16:26:03.478Z,12.78
2018-09-01T16:27:03.445Z,12.77
2018-09-01T16:28:03.427Z,12.72
2018-09-01T16:29:03.414Z,12.72
2018-09-01T16:30:03.397Z,12.72
2018-09-01T16:31:03.382Z,12.83
2018-09-01T16:33:14.956Z,12.77
2018-09-01T16:34:14.880Z,12.79
2018-09-01T16:35:14.869Z,12.78
2018-09-01T16:36:14.885Z,12.75
2018-09-01T16:37:14.857Z,12.74
2018-09-01T16:38:14.813Z,12.75
2018-09-01T16:39:14.838Z,12.71
2018-09-01T16:40:14.795Z,12.72
2018-09-01T16:41:14.780Z,12.71
2018-09-01T16:42:14.808Z,12.70
2018-09-01T16:43:14.764Z,12.62
2018-09-01T16:44:14.752Z,12.65
2018-09-01T16:45:14.734Z,12.72
2018-09-01T16:46:14.719Z,12.75
2018-09-01T16:48:26.603Z,12.74
2018-09-01T16:49:26.590Z,12.72
2018-09-01T16:50:26.520Z,12.65
2018-09-01T16:51:26.588Z,12.70
2018-09-01T16:52:26.524Z,12.67
2018-09-01T16:53:26.453Z,12.70
2018-09-01T16:54:26.464Z,12.64
2018-09-01T16:55:26.428Z,12.70
2018-09-01T16:56:26.456Z,12.65
2018-09-01T16:57:26.440Z,12.64
2018-09-01T16:58:31.150Z,12.59
2018-09-01T16:59:26.388Z,12.64
2018-09-01T17:00:26.397Z,12.56
2018-09-01T17:01:26.362Z,12.60
2018-09-01T17:03:49.371Z,12.68
2018-09-01T17:04:42.136Z,12.59
2018-09-01T17:05:42.274Z,12.65
2018-09-01T17:06:42.062Z,12.75
2018-09-01T17:07:42.011Z,12.78
2018-09-01T17:08:42.010Z,12.68
2018-09-01T17:10:14.418Z,12.68
2018-09-01T17:10:42.062Z,12.71
2018-09-01T17:11:42.031Z,12.64
2018-09-01T17:12:41.997Z,12.59
2018-09-01T17:13:41.929Z,12.68
2018-09-01T17:14:41.929Z,12.70
2018-09-01T17:15:41.904Z,12.65
2018-09-01T17:16:41.927Z,12.72
2018-09-01T17:18:53.729Z,12.75
2018-09-01T17:19:53.537Z,12.75
2018-09-01T17:20:53.569Z,12.72
2018-09-01T17:21:53.540Z,12.68
2018-09-01T17:22:53.501Z,12.65
2018-09-01T17:23:53.483Z,12.70
2018-09-01T17:24:53.487Z,12.68
2018-09-01T17:25:53.502Z,12.64
2018-09-01T17:26:53.494Z,12.60
2018-09-01T17:27:53.524Z,12.62
2018-09-01T17:28:53.429Z,12.64
2018-09-01T17:29:53.428Z,12.67
2018-09-01T17:30:53.428Z,12.72
2018-09-01T17:31:53.421Z,12.71
2018-09-01T17:34:06.010Z,12.72
2018-09-01T17:35:37.524Z,12.65
2018-09-01T17:36:05.894Z,12.62
2018-09-01T17:37:05.832Z,12.71
2018-09-01T17:38:05.782Z,12.65
2018-09-01T17:39:05.783Z,12.68
2018-09-01T17:40:05.758Z,12.64
2018-09-01T17:41:05.724Z,12.65
2018-09-01T17:42:05.747Z,12.62
2018-09-01T17:43:05.688Z,12.56
2018-09-01T17:44:05.677Z,12.65
2018-09-01T17:45:05.678Z,12.57
2018-09-01T17:46:05.654Z,12.56
2018-09-01T17:47:05.675Z,12.56
2018-09-01T17:49:12.451Z,12.52
2018-09-01T17:50:12.473Z,12.56
2018-09-01T17:51:12.343Z,12.53
2018-09-01T17:52:12.348Z,12.56
2018-09-01T17:53:12.307Z,12.56
2018-09-01T17:54:12.338Z,12.64
2018-09-01T17:55:12.248Z,12.57
2018-09-01T17:56:12.243Z,12.54
2018-09-01T17:57:12.219Z,12.57
2018-09-01T17:58:12.248Z,12.56
2018-09-01T17:59:12.246Z,12.56
2018-09-01T18:00:12.187Z,12.60
2018-09-01T18:01:12.211Z,12.57
2018-09-01T18:02:12.299Z,12.54
2018-09-01T18:04:22.031Z,12.57
2018-09-01T18:05:21.968Z,12.57
2018-09-01T18:06:21.987Z,12.53
2018-09-01T18:07:22.016Z,12.57
2018-09-01T18:08:21.864Z,12.52
2018-09-01T18:09:21.890Z,12.47
2018-09-01T18:10:21.868Z,12.54
2018-09-01T18:11:21.839Z,12.53
2018-09-01T18:12:21.804Z,12.50
2018-09-01T18:13:22.835Z,12.53
2018-09-01T18:14:21.789Z,12.52
2018-09-01T18:15:21.788Z,12.56
2018-09-01T18:16:22.112Z,12.54
2018-09-01T18:18:33.059Z,12.50
2018-09-01T18:19:32.983Z,12.53
2018-09-01T18:20:32.916Z,12.50
2018-09-01T18:21:33.001Z,12.49
2018-09-01T18:22:33.126Z,12.53
2018-09-01T18:23:32.973Z,12.56
2018-09-01T18:24:32.845Z,12.47
2018-09-01T18:25:32.824Z,12.59
2018-09-01T18:26:32.807Z,12.41
2018-09-01T18:27:32.858Z,12.49
2018-09-01T18:28:32.793Z,12.54
2018-09-01T18:29:32.788Z,12.45
2018-09-01T18:30:32.763Z,12.50
2018-09-01T18:31:32.750Z,12.56
2018-09-01T18:33:45.014Z,12.52
2018-09-01T18:34:44.986Z,12.47
2018-09-01T18:35:44.951Z,12.56
2018-09-01T18:36:44.987Z,12.42
2018-09-01T18:37:45.236Z,12.38
2018-09-01T18:38:44.867Z,12.42
2018-09-01T18:39:55.789Z,12.42
2018-09-01T18:40:44.866Z,12.45
2018-09-01T18:41:44.807Z,12.41
2018-09-01T18:42:45.821Z,12.41
2018-09-01T18:43:44.810Z,12.56
2018-09-01T18:44:44.769Z,12.39
2018-09-01T18:45:44.756Z,12.50
2018-09-01T18:46:44.748Z,12.39
2018-09-01T18:48:56.042Z,12.56
2018-09-01T18:49:55.988Z,12.45
2018-09-01T18:50:55.894Z,12.52
2018-09-01T18:51:55.973Z,12.45
2018-09-01T18:52:55.870Z,12.49
2018-09-01T18:53:55.841Z,12.39
2018-09-01T18:54:55.848Z,12.46
2018-09-01T18:55:55.819Z,12.41
2018-09-01T18:56:55.805Z,12.39
2018-09-01T18:57:55.841Z,12.49
2018-09-01T18:58:55.783Z,12.54
2018-09-01T18:59:55.774Z,12.50
2018-09-01T19:00:55.757Z,12.41
2018-09-01T19:01:55.758Z,12.52
2018-09-01T19:04:07.285Z,12.52
2018-09-01T19:05:07.240Z,12.56
2018-09-01T19:06:07.227Z,12.57
2018-09-01T19:07:07.223Z,12.52
2018-09-01T19:08:07.264Z,12.60
2018-09-01T19:09:07.164Z,12.53
2018-09-01T19:10:07.136Z,12.56
2018-09-01T19:11:07.134Z,12.50
2018-09-01T19:12:07.133Z,12.37
2018-09-01T19:13:07.130Z,12.53
2018-09-01T19:14:07.138Z,12.56
2018-09-01T19:15:07.079Z,12.41
2018-09-01T19:16:07.069Z,12.56
2018-09-01T19:17:07.104Z,12.53
2018-09-01T19:19:18.819Z,12.56
2018-09-01T19:20:18.733Z,12.56
2018-09-01T19:21:18.777Z,12.56
2018-09-01T19:22:18.691Z,12.54
2018-09-01T19:23:18.750Z,12.57
2018-09-01T19:24:18.656Z,12.53
2018-09-01T19:25:18.628Z,12.57
2018-09-01T19:26:18.657Z,12.53
2018-09-01T19:27:18.604Z,12.56
2018-09-01T19:28:18.594Z,12.52
2018-09-01T19:29:18.624Z,12.39
2018-09-01T19:30:18.577Z,12.41
2018-09-01T19:31:18.555Z,12.39
2018-09-01T19:32:18.550Z,12.45
2018-09-01T19:34:31.035Z,12.39
2018-09-01T19:35:30.958Z,12.42
2018-09-01T19:36:30.920Z,12.39
2018-09-01T19:37:30.930Z,12.28
2018-09-01T19:38:30.915Z,12.29
2018-09-01T19:39:30.856Z,12.29
2018-09-01T19:40:30.855Z,12.32
2018-09-01T19:41:30.859Z,12.28
2018-09-01T19:42:30.845Z,12.34
2018-09-01T19:43:30.821Z,12.28
2018-09-01T19:44:30.815Z,12.28
2018-09-01T19:45:30.929Z,12.31
2018-09-01T19:46:30.767Z,12.31
2018-09-01T19:47:30.754Z,12.32
2018-09-01T19:49:43.121Z,12.31
2018-09-01T19:50:43.095Z,12.32
2018-09-01T19:51:42.993Z,12.27
2018-09-01T19:52:43.034Z,12.28
2018-09-01T19:53:42.927Z,12.34
2018-09-01T19:54:42.940Z,12.35
2018-09-01T19:55:42.923Z,12.31
2018-09-01T19:56:42.882Z,12.27
2018-09-01T19:57:43.048Z,12.28
2018-09-01T19:58:42.927Z,12.20
2018-09-01T19:59:42.867Z,12.17
2018-09-01T20:00:42.844Z,12.20
2018-09-01T20:01:42.838Z,12.23
2018-09-01T20:02:42.821Z,12.13
2018-09-01T20:04:54.428Z,12.23
2018-09-01T20:05:54.281Z,12.27
2018-09-01T20:06:54.241Z,12.27
2018-09-01T20:07:54.344Z,12.16
2018-09-01T20:08:54.211Z,12.19
2018-09-01T20:09:54.171Z,12.24
2018-09-01T20:10:54.170Z,12.23
2018-09-01T20:11:54.155Z,12.21
2018-09-01T20:12:54.174Z,12.20
2018-09-01T20:13:54.125Z,12.20
2018-09-01T20:14:54.162Z,12.20
2018-09-01T20:15:54.099Z,12.17
2018-09-01T20:16:54.086Z,12.12
2018-09-01T20:19:05.411Z,12.14
2018-09-01T20:20:05.406Z,12.20
2018-09-01T20:21:05.307Z,12.10
2018-09-01T20:22:05.368Z,12.09
2018-09-01T20:23:05.196Z,12.21
2018-09-01T20:24:05.207Z,12.16
2018-09-01T20:25:05.227Z,12.16
2018-09-01T20:26:05.187Z,12.17
2018-09-01T20:27:05.157Z,12.19
2018-09-01T20:28:05.127Z,12.16
2018-09-01T20:29:05.162Z,12.23
2018-09-01T20:30:05.097Z,12.29
2018-09-01T20:31:05.133Z,12.16
2018-09-01T20:32:05.075Z,12.23
2018-09-01T20:34:16.693Z,12.19
2018-09-01T20:35:16.652Z,12.27
2018-09-01T20:36:16.605Z,12.19
2018-09-01T20:37:16.652Z,12.24
2018-09-01T20:38:16.537Z,12.23
2018-09-01T20:39:16.539Z,12.28
2018-09-01T20:40:16.564Z,12.27
2018-09-01T20:41:18.028Z,12.23
2018-09-01T20:42:16.466Z,12.28
2018-09-01T20:43:16.564Z,12.23
2018-09-01T20:44:16.445Z,12.23
2018-09-01T20:45:16.472Z,12.27
2018-09-01T20:46:16.465Z,12.19
2018-09-01T20:47:16.416Z,12.27
2018-09-01T20:49:26.259Z,12.21
2018-09-01T20:50:26.190Z,12.23
2018-09-01T20:51:26.235Z,12.17
2018-09-01T20:52:26.129Z,12.16
2018-09-01T20:53:26.131Z,12.28
2018-09-01T20:54:26.163Z,12.24
2018-09-01T20:55:26.108Z,12.14
2018-09-01T20:56:26.103Z,12.21
2018-09-01T20:57:26.071Z,12.23
2018-09-01T20:58:26.066Z,12.32
2018-09-01T20:59:26.041Z,12.19
2018-09-01T21:00:26.070Z,12.20
2018-09-01T21:01:26.033Z,12.28
2018-09-01T21:02:26.012Z,12.29
2018-09-01T21:04:37.487Z,12.31
2018-09-01T21:05:37.396Z,12.23
2018-09-01T21:06:37.391Z,12.32
2018-09-01T21:07:37.413Z,12.31
2018-09-01T21:08:37.375Z,12.29
2018-09-01T21:09:37.345Z,12.32
2018-09-01T21:10:37.326Z,12.32
2018-09-01T21:11:37.305Z,12.31
2018-09-01T21:12:37.292Z,12.29
2018-09-01T21:13:37.283Z,12.41
2018-09-01T21:14:37.316Z,12.39
2018-09-01T21:15:37.294Z,12.38
2018-09-01T21:16:37.272Z,12.42
2018-09-01T21:17:37.232Z,12.39
2018-09-01T21:19:48.659Z,12.39
2018-09-01T21:21:10.246Z,12.32
2018-09-01T21:21:50.671Z,12.32
2018-09-01T21:23:00.187Z,12.41
2018-09-01T21:23:54.241Z,12.39
2018-09-01T21:25:10.683Z,12.29
2018-09-01T21:26:04.184Z,12.42
2018-09-01T21:26:50.231Z,12.42
2018-09-01T21:27:54.195Z,12.39
2018-09-01T21:28:54.198Z,12.45
2018-09-01T21:29:51.201Z,12.42
2018-09-01T21:31:11.194Z,12.41
2018-09-01T21:32:25.713Z,12.47
2018-09-01T21:32:49.480Z,12.42
2018-09-01T21:35:25.867Z,12.41
2018-09-01T21:36:06.806Z,12.42
2018-09-01T21:37:26.341Z,12.41
2018-09-01T21:38:08.819Z,12.50
2018-09-01T21:39:03.810Z,12.39
2018-09-01T21:40:06.803Z,12.49
2018-09-01T21:41:02.519Z,12.56
2018-09-01T21:43:43.808Z,12.52
2018-09-01T21:44:12.597Z,12.41
2018-09-01T21:45:23.298Z,12.42
2018-09-01T21:46:13.264Z,12.47
2018-09-01T21:47:15.260Z,12.41
2018-09-01T21:49:24.795Z,12.45
2018-09-01T21:50:24.696Z,12.52
2018-09-01T21:51:25.089Z,12.54
2018-09-01T21:52:35.265Z,12.41
2018-09-01T21:53:24.840Z,12.42
2018-09-01T21:54:25.461Z,12.39
2018-09-01T21:56:12.113Z,12.42
2018-09-01T21:56:24.411Z,12.42
2018-09-01T21:57:24.395Z,12.56
2018-09-01T21:58:24.410Z,12.41
2018-09-01T21:59:24.399Z,12.47
2018-09-01T22:00:24.324Z,12.54
2018-09-01T22:01:24.376Z,12.42
2018-09-01T22:02:24.308Z,12.46
2018-09-01T22:04:35.654Z,12.57
2018-09-01T22:05:35.531Z,12.42
2018-09-01T22:06:35.510Z,12.53
2018-09-01T22:07:35.589Z,12.52
2018-09-01T22:08:35.515Z,12.42
2018-09-01T22:09:35.449Z,12.42
2018-09-01T22:10:35.453Z,12.41
2018-09-01T22:11:35.479Z,12.49
2018-09-01T22:12:35.417Z,12.42
2018-09-01T22:13:35.450Z,12.42